Time;durP1;ratioP1;P1;durP2;ratioP2;P2;SDS_P1;SDS_P2;PMS_P1;PMS_P2;Temp;Humidity;BMP_temperature;BMP_pressure;BME280_temperature;BME280_humidity;BME280_pressure;Samples;Min_cycle;Max_cycle;Signal;HPM_P1;HPM_P2
2021/12/06 00:00:19;;;;;;;34.67;19.73;;;1.90;99.90;;;;;;4975105;28;20052;-77
2021/12/06 00:02:46;;;;;;;34.80;19.40;;;2.50;99.90;;;;;;4958276;28;20050;-75
2021/12/06 00:05:13;;;;;;;34.05;19.80;;;2.00;99.90;;;;;;4972889;28;20042;-77
2021/12/06 00:07:39;;;;;;;34.08;19.65;;;1.90;99.90;;;;;;4962591;28;20054;-75
2021/12/06 00:10:09;;;;;;;34.47;19.88;;;2.70;99.90;;;;;;4971254;28;20054;-76
2021/12/06 00:12:35;;;;;;;34.85;18.50;;;2.00;99.90;;;;;;4957452;28;20047;-75
2021/12/06 00:15:01;;;;;;;30.17;19.35;;;2.00;99.90;;;;;;4967493;28;20038;-77
2021/12/06 00:17:27;;;;;;;32.53;17.40;;;2.80;99.90;;;;;;4972938;28;20355;-77
2021/12/06 00:19:53;;;;;;;36.60;19.52;;;2.60;99.90;;;;;;4972718;28;20053;-77
2021/12/06 00:22:22;;;;;;;32.90;18.33;;;2.40;99.90;;;;;;4951971;28;20498;-78
2021/12/06 00:24:50;;;;;;;34.00;19.88;;;1.90;99.90;;;;;;4993822;28;20038;-79
2021/12/06 00:27:16;;;;;;;36.53;20.70;;;2.60;99.90;;;;;;4989682;28;20085;-78
2021/12/06 00:29:42;;;;;;;32.47;17.25;;;2.50;99.90;;;;;;4975344;28;20501;-79
2021/12/06 00:32:08;;;;;;;35.08;19.95;;;2.60;99.90;;;;;;4968642;28;20053;-78
2021/12/06 00:34:37;;;;;;;35.10;19.58;;;2.70;99.90;;;;;;4958345;28;20046;-78
2021/12/06 00:37:15;;;;;;;34.22;18.38;;;2.30;99.90;;;;;;4958301;28;20039;-77
2021/12/06 00:39:43;;;;;;;33.22;20.38;;;1.90;99.90;;;;;;4980754;28;20035;-77
2021/12/06 00:42:10;;;;;;;30.35;18.00;;;2.00;99.90;;;;;;4969614;28;20486;-77
2021/12/06 00:44:36;;;;;;;33.33;18.42;;;2.10;99.90;;;;;;5025499;28;20448;-76
2021/12/06 00:47:02;;;;;;;36.80;20.70;;;2.50;99.90;;;;;;4971525;28;20113;-79
2021/12/06 00:49:28;;;;;;;38.47;21.35;;;1.90;99.90;;;;;;4964647;28;20392;-79
2021/12/06 00:51:53;;;;;;;34.08;18.35;;;2.60;99.90;;;;;;4953413;28;20038;-76
2021/12/06 00:54:19;;;;;;;35.30;19.20;;;2.30;99.90;;;;;;5035626;28;20276;-76
2021/12/06 00:56:45;;;;;;;35.95;20.27;;;2.40;99.90;;;;;;4954403;28;20121;-75
2021/12/06 00:59:11;;;;;;;32.00;17.63;;;2.20;99.90;;;;;;4972428;28;20034;-77
2021/12/06 01:01:36;;;;;;;33.35;19.85;;;2.10;99.90;;;;;;4988331;28;20100;-77
2021/12/06 01:04:04;;;;;;;32.45;17.67;;;2.90;99.90;;;;;;5062808;28;20075;-75
2021/12/06 01:06:31;;;;;;;37.35;19.27;;;2.60;99.90;;;;;;4970824;28;20482;-76
2021/12/06 01:08:57;;;;;;;33.03;20.50;;;2.60;99.90;;;;;;4971827;28;20440;-74
2021/12/06 01:11:23;;;;;;;34.72;19.92;;;2.60;99.90;;;;;;4970548;28;20061;-75
2021/12/06 01:13:49;;;;;;;34.08;19.15;;;2.60;99.90;;;;;;4972100;28;20382;-77
2021/12/06 01:16:16;;;;;;;35.90;20.40;;;2.60;99.90;;;;;;4968975;28;20035;-77
2021/12/06 01:18:42;;;;;;;38.05;21.20;;;2.60;99.90;;;;;;4997927;28;20052;-75
2021/12/06 01:21:30;;;;;;;34.75;17.83;;;3.30;99.90;;;;;;4991260;28;20034;-75
2021/12/06 01:23:59;;;;;;;39.67;20.95;;;2.50;99.90;;;;;;4972722;28;20046;-76
2021/12/06 01:27:04;;;;;;;34.60;19.08;;;2.60;99.90;;;;;;4969575;28;20107;-76
2021/12/06 01:40:38;;;;;;;33.75;18.77;;;2.50;99.90;;;;;;4931894;28;20058;-74
2021/12/06 01:43:05;;;;;;;31.67;17.13;;;2.20;99.90;;;;;;4935438;28;20470;-75
2021/12/06 01:45:31;;;;;;;34.30;18.23;;;2.00;99.90;;;;;;4981033;28;20134;-76
2021/12/06 01:47:56;;;;;;;39.58;20.30;;;2.00;99.90;;;;;;4973999;28;20070;-78
2021/12/06 01:50:28;;;;;;;37.63;18.35;;;2.10;99.90;;;;;;4961234;28;20053;-75
2021/12/06 01:52:57;;;;;;;38.78;19.52;;;2.50;99.90;;;;;;4981795;28;20042;-77
2021/12/06 01:55:26;;;;;;;38.05;20.02;;;1.80;99.90;;;;;;4952492;28;20051;-75
2021/12/06 01:57:55;;;;;;;36.95;17.25;;;2.60;99.90;;;;;;4957520;28;20044;-75
2021/12/06 02:00:38;;;;;;;40.85;21.10;;;1.70;99.90;;;;;;5034534;28;20088;-77
2021/12/06 02:03:04;;;;;;;39.50;20.85;;;2.60;99.90;;;;;;4993538;28;20135;-77
2021/12/06 02:05:30;;;;;;;41.65;22.08;;;2.10;99.90;;;;;;5007522;28;20462;-75
2021/12/06 02:07:56;;;;;;;42.25;20.30;;;2.60;99.90;;;;;;4957639;28;20082;-78
2021/12/06 02:10:23;;;;;;;40.72;21.63;;;2.30;99.90;;;;;;4968783;28;20100;-76
2021/12/06 02:12:52;;;;;;;42.30;20.60;;;1.70;99.90;;;;;;4963897;28;20051;-76
2021/12/06 02:18:39;;;;;;;47.38;20.40;;;1.80;99.90;;;;;;4983611;28;20185;-76
2021/12/06 02:21:18;;;;;;;35.45;17.67;;;2.50;99.90;;;;;;4975670;28;20436;-77
2021/12/06 02:23:45;;;;;;;41.08;21.60;;;2.70;99.90;;;;;;4979022;28;20081;-77
2021/12/06 02:26:12;;;;;;;40.38;20.67;;;1.80;99.90;;;;;;4991090;28;20046;-77
2021/12/06 02:28:38;;;;;;;40.97;19.98;;;2.70;99.90;;;;;;4961940;28;20153;-76
2021/12/06 02:31:04;;;;;;;47.35;22.48;;;2.40;99.90;;;;;;4930970;28;20059;-77
2021/12/06 02:33:29;;;;;;;37.35;16.90;;;2.70;99.90;;;;;;4945727;28;20692;-76
2021/12/06 02:35:55;;;;;;;47.05;24.17;;;1.80;99.90;;;;;;4952155;28;20032;-75
2021/12/06 02:38:21;;;;;;;41.72;20.85;;;2.60;99.90;;;;;;4932476;28;20108;-77
2021/12/06 02:40:47;;;;;;;38.63;19.67;;;2.50;99.90;;;;;;4956076;28;20038;-75
2021/12/06 02:43:14;;;;;;;41.70;21.02;;;1.70;99.90;;;;;;4973008;28;20047;-76
2021/12/06 02:45:40;;;;;;;42.83;21.10;;;2.20;99.90;;;;;;4977934;28;20138;-77
2021/12/06 02:48:10;;;;;;;39.72;18.90;;;1.90;99.90;;;;;;4999342;28;20041;-76
2021/12/06 02:50:56;;;;;;;41.78;21.20;;;1.80;99.90;;;;;;4998438;28;20047;-77
2021/12/06 02:53:25;;;;;;;39.05;19.08;;;1.90;99.90;;;;;;4968454;28;20051;-76
2021/12/06 02:55:53;;;;;;;44.65;21.92;;;2.00;99.90;;;;;;4959905;28;20483;-76
2021/12/06 03:01:05;;;;;;;40.72;19.58;;;2.80;99.90;;;;;;4962440;28;20447;-76
2021/12/06 03:03:31;;;;;;;38.95;18.95;;;1.80;99.90;;;;;;5019881;28;20045;-76
2021/12/06 03:05:57;;;;;;;46.30;21.80;;;2.40;99.90;;;;;;4965770;28;20032;-76
2021/12/06 03:08:41;;;;;;;38.05;17.90;;;1.90;99.90;;;;;;5035129;28;20055;-76
2021/12/06 03:11:13;;;;;;;43.80;20.50;;;1.70;99.90;;;;;;5009243;28;20151;-76
2021/12/06 03:13:40;;;;;;;45.65;20.98;;;3.50;99.90;;;;;;5013490;28;20048;-76
2021/12/06 03:16:06;;;;;;;45.53;22.10;;;2.90;99.90;;;;;;4951470;28;20380;-77
2021/12/06 03:18:32;;;;;;;43.92;18.85;;;1.80;99.90;;;;;;4999426;28;20136;-78
2021/12/06 03:20:58;;;;;;;44.92;21.30;;;2.10;99.90;;;;;;4981487;28;20039;-76
2021/12/06 03:23:25;;;;;;;43.05;20.30;;;2.90;99.90;;;;;;5018380;28;20041;-77
2021/12/06 03:25:51;;;;;;;44.60;21.65;;;2.40;99.90;;;;;;4954765;28;20538;-77
2021/12/06 03:28:17;;;;;;;47.20;20.92;;;2.80;99.90;;;;;;4969153;28;20085;-78
2021/12/06 03:30:42;;;;;;;47.00;21.20;;;1.90;99.90;;;;;;4984298;28;20520;-75
2021/12/06 03:33:08;;;;;;;43.92;19.85;;;2.30;99.90;;;;;;5058807;28;20412;-76
2021/12/06 03:35:34;;;;;;;41.55;18.63;;;1.80;99.90;;;;;;5009772;28;20047;-76
2021/12/06 03:38:00;;;;;;;48.28;21.63;;;2.90;99.90;;;;;;5011421;28;20066;-78
2021/12/06 03:40:26;;;;;;;44.55;21.63;;;2.10;99.90;;;;;;5025232;28;20070;-77
2021/12/06 03:42:52;;;;;;;41.95;22.02;;;2.00;99.90;;;;;;5016834;28;20050;-77
2021/12/06 03:45:17;;;;;;;41.83;20.80;;;1.80;99.90;;;;;;4972445;28;20038;-77
2021/12/06 03:47:43;;;;;;;47.97;22.20;;;2.60;99.90;;;;;;4973952;28;20055;-77
2021/12/06 03:50:10;;;;;;;45.95;23.23;;;2.40;99.90;;;;;;5075792;28;20071;-78
2021/12/06 03:52:36;;;;;;;45.55;22.05;;;2.40;99.90;;;;;;5036486;28;20040;-77
2021/12/06 03:55:04;;;;;;;43.22;19.65;;;2.30;99.90;;;;;;5046800;28;20458;-77
2021/12/06 03:57:30;;;;;;;45.85;20.80;;;2.30;99.90;;;;;;5046151;28;20046;-76
2021/12/06 03:59:55;;;;;;;41.58;20.33;;;2.70;99.90;;;;;;5002163;28;20101;-74
2021/12/06 04:02:24;;;;;;;43.67;23.52;;;2.00;99.90;;;;;;5003262;28;20626;-74
2021/12/06 04:04:50;;;;;;;48.10;21.77;;;2.80;99.90;;;;;;4973954;28;20076;-75
2021/12/06 04:07:16;;;;;;;47.67;23.83;;;2.90;99.90;;;;;;5009546;28;20035;-77
2021/12/06 04:09:42;;;;;;;48.13;21.77;;;3.00;99.90;;;;;;5012903;28;20834;-75
2021/12/06 04:12:09;;;;;;;47.20;22.50;;;3.10;99.90;;;;;;5006275;28;20427;-76
2021/12/06 04:14:37;;;;;;;43.22;20.60;;;2.00;99.90;;;;;;4983678;28;20066;-76
2021/12/06 04:17:03;;;;;;;52.47;23.20;;;2.10;99.90;;;;;;5021643;28;20061;-75
2021/12/06 04:19:29;;;;;;;42.88;21.10;;;3.10;99.90;;;;;;5026932;28;20050;-76
2021/12/06 04:21:55;;;;;;;45.55;20.67;;;2.90;99.90;;;;;;4974696;28;20046;-74
2021/12/06 04:24:21;;;;;;;46.67;22.90;;;2.10;99.90;;;;;;5065529;28;20463;-75
2021/12/06 04:26:48;;;;;;;51.25;23.75;;;2.00;99.90;;;;;;5054941;28;20117;-77
2021/12/06 04:29:14;;;;;;;50.78;23.63;;;2.10;99.90;;;;;;5018764;28;20058;-75
2021/12/06 04:31:51;;;;;;;50.60;24.33;;;3.10;99.90;;;;;;4990890;28;20046;-74
2021/12/06 04:34:17;;;;;;;45.75;20.10;;;2.90;99.90;;;;;;4993391;28;20047;-75
2021/12/06 04:36:44;;;;;;;45.40;22.30;;;2.30;99.90;;;;;;5074599;28;20040;-76
2021/12/06 04:39:13;;;;;;;42.65;21.02;;;2.30;99.90;;;;;;5032069;28;20037;-75
2021/12/06 04:41:41;;;;;;;46.20;22.42;;;2.10;99.90;;;;;;4974312;28;20038;-76
2021/12/06 04:44:07;;;;;;;43.13;22.35;;;3.10;99.90;;;;;;5006313;28;20050;-75
2021/12/06 04:46:34;;;;;;;41.30;20.98;;;3.10;99.90;;;;;;4973263;28;20046;-75
2021/12/06 04:48:59;;;;;;;45.03;21.75;;;2.10;99.90;;;;;;5005557;28;20042;-75
2021/12/06 04:51:25;;;;;;;49.53;23.08;;;3.10;99.90;;;;;;5057507;28;20377;-75
2021/12/06 04:53:53;;;;;;;48.97;21.38;;;3.10;99.90;;;;;;4970418;28;20096;-76
2021/12/06 04:56:30;;;;;;;46.97;22.90;;;3.10;99.90;;;;;;4996540;28;20044;-75
2021/12/06 04:59:11;;;;;;;46.80;22.15;;;2.20;99.90;;;;;;5065809;28;20040;-76
2021/12/06 05:01:37;;;;;;;41.47;21.30;;;2.50;99.90;;;;;;4996403;28;20145;-76
2021/12/06 05:04:20;;;;;;;47.40;23.00;;;2.50;99.90;;;;;;5063670;28;20494;-76
2021/12/06 05:06:49;;;;;;;53.08;23.17;;;3.00;99.90;;;;;;4984310;28;20042;-75
2021/12/06 05:09:23;;;;;;;45.85;21.35;;;2.10;99.90;;;;;;4974719;28;20405;-75
2021/12/06 05:11:49;;;;;;;45.22;23.48;;;2.40;99.90;;;;;;4994487;28;20050;-76
2021/12/06 05:14:16;;;;;;;48.65;21.83;;;2.30;99.90;;;;;;4983776;28;20039;-77
2021/12/06 05:16:42;;;;;;;48.22;22.55;;;2.80;99.90;;;;;;5044601;28;20099;-76
2021/12/06 05:19:08;;;;;;;45.53;22.25;;;2.80;99.90;;;;;;4986941;28;20034;-76
2021/12/06 05:21:34;;;;;;;50.85;22.35;;;3.00;99.90;;;;;;4974587;28;20034;-76
2021/12/06 05:24:00;;;;;;;46.90;21.75;;;3.10;99.90;;;;;;4994236;28;20036;-77
2021/12/06 05:26:26;;;;;;;46.30;22.63;;;3.10;99.90;;;;;;4958777;28;20039;-76
2021/12/06 05:28:57;;;;;;;52.92;23.50;;;3.00;99.90;;;;;;5015976;28;20119;-76
2021/12/06 05:31:24;;;;;;;41.25;20.10;;;3.10;99.90;;;;;;4975677;28;20050;-74
2021/12/06 05:33:54;;;;;;;42.97;19.85;;;3.30;99.90;;;;;;4951421;28;20054;-75
2021/12/06 05:36:20;;;;;;;50.90;22.00;;;3.50;99.90;;;;;;4967232;28;20125;-75
2021/12/06 05:38:46;;;;;;;42.28;19.33;;;2.30;99.90;;;;;;4969725;28;20057;-75
2021/12/06 05:41:12;;;;;;;43.67;20.85;;;3.20;99.90;;;;;;4970426;28;20038;-74
2021/12/06 05:43:37;;;;;;;43.30;20.00;;;2.10;99.90;;;;;;4965350;28;20078;-76
2021/12/06 05:46:03;;;;;;;40.78;19.63;;;2.20;99.90;;;;;;4966538;28;20486;-75
2021/12/06 05:48:29;;;;;;;45.17;20.80;;;2.00;99.90;;;;;;4971192;28;20046;-77
2021/12/06 05:50:55;;;;;;;48.78;22.98;;;2.10;99.90;;;;;;4970616;28;20054;-78
2021/12/06 05:53:22;;;;;;;45.03;21.02;;;3.20;99.90;;;;;;4995731;28;20046;-77
2021/12/06 05:55:51;;;;;;;45.95;22.23;;;3.20;99.90;;;;;;4989494;28;20038;-76
2021/12/06 05:58:20;;;;;;;47.80;20.45;;;2.00;99.90;;;;;;4969681;28;20581;-76
2021/12/06 06:00:46;;;;;;;50.85;22.63;;;3.20;99.90;;;;;;4965398;28;20057;-76
2021/12/06 06:03:12;;;;;;;50.38;21.13;;;3.70;99.90;;;;;;4995067;28;20035;-76
2021/12/06 06:05:38;;;;;;;44.58;20.05;;;3.30;99.90;;;;;;4953636;28;20506;-75
2021/12/06 06:08:05;;;;;;;44.22;18.20;;;3.10;99.90;;;;;;4970225;28;20070;-76
2021/12/06 06:10:31;;;;;;;48.97;22.13;;;2.70;99.90;;;;;;4955682;28;20379;-76
2021/12/06 06:12:59;;;;;;;43.67;19.58;;;3.20;99.90;;;;;;4953261;28;20492;-75
2021/12/06 06:15:26;;;;;;;51.42;24.33;;;2.90;99.90;;;;;;4967372;28;20152;-75
2021/12/06 06:17:52;;;;;;;41.38;19.35;;;2.10;99.90;;;;;;4954168;28;20054;-74
2021/12/06 06:20:22;;;;;;;51.97;22.77;;;2.60;99.90;;;;;;4990247;28;20410;-74
2021/12/06 06:22:50;;;;;;;48.03;21.65;;;3.10;99.90;;;;;;4971801;28;20092;-73
2021/12/06 06:25:17;;;;;;;49.78;21.58;;;2.20;99.90;;;;;;5001332;28;20042;-74
2021/12/06 06:27:44;;;;;;;43.30;18.50;;;3.00;99.90;;;;;;4973438;28;20038;-72
2021/12/06 06:30:11;;;;;;;42.42;19.92;;;3.40;99.90;;;;;;4962998;28;20051;-72
2021/12/06 06:32:37;;;;;;;42.92;20.92;;;2.90;99.90;;;;;;4946713;28;20047;-73
2021/12/06 06:35:07;;;;;;;38.90;18.50;;;2.50;99.90;;;;;;4949628;28;20059;-73
2021/12/06 06:37:33;;;;;;;36.65;16.38;;;3.00;99.90;;;;;;4928887;29;20039;-73
2021/12/06 06:39:59;;;;;;;41.65;17.75;;;2.70;99.90;;;;;;5008336;28;20043;-74
2021/12/06 06:42:27;;;;;;;34.92;15.93;;;3.10;99.90;;;;;;4958237;28;20039;-73
2021/12/06 06:44:54;;;;;;;34.42;14.60;;;2.20;99.90;;;;;;4944664;28;20044;-73
2021/12/06 06:47:21;;;;;;;39.35;18.30;;;2.90;99.90;;;;;;5037583;28;20485;-75
2021/12/06 06:49:47;;;;;;;34.05;14.23;;;2.70;99.90;;;;;;5007780;28;20049;-74
2021/12/06 06:52:14;;;;;;;35.67;18.00;;;3.00;99.90;;;;;;4972343;28;20043;-75
2021/12/06 06:54:40;;;;;;;42.50;20.50;;;3.40;99.90;;;;;;4972902;28;20047;-74
2021/12/06 06:57:06;;;;;;;43.22;19.38;;;2.80;99.90;;;;;;5025883;28;20041;-73
2021/12/06 06:59:32;;;;;;;38.60;16.17;;;3.00;99.90;;;;;;4978499;28;20039;-73
2021/12/06 07:01:57;;;;;;;38.42;17.02;;;3.00;99.90;;;;;;4975554;28;20483;-73
2021/12/06 07:04:24;;;;;;;43.60;20.48;;;3.20;99.90;;;;;;4948466;28;20118;-74
2021/12/06 07:06:51;;;;;;;36.60;17.15;;;2.10;99.90;;;;;;4979525;28;20039;-75
2021/12/06 07:09:18;;;;;;;37.63;17.00;;;2.10;99.90;;;;;;4962236;28;20050;-74
2021/12/06 07:11:46;;;;;;;40.72;17.27;;;2.60;99.90;;;;;;4973802;28;20051;-74
2021/12/06 07:14:13;;;;;;;29.25;13.68;;;3.70;99.90;;;;;;4985164;28;20123;-73
2021/12/06 07:16:40;;;;;;;39.70;17.48;;;3.20;99.90;;;;;;4987731;28;20058;-74
2021/12/06 07:19:06;;;;;;;45.03;20.42;;;2.10;99.90;;;;;;4970192;28;20067;-74
2021/12/06 07:21:31;;;;;;;28.73;13.07;;;3.10;99.90;;;;;;4954568;28;20082;-75
2021/12/06 07:23:57;;;;;;;34.63;16.70;;;3.10;99.90;;;;;;4949191;29;20046;-74
2021/12/06 07:26:23;;;;;;;35.47;15.60;;;2.60;99.90;;;;;;4953722;28;20376;-74
2021/12/06 07:28:54;;;;;;;43.67;19.30;;;3.50;99.90;;;;;;4950316;28;20506;-74
2021/12/06 07:31:21;;;;;;;44.40;20.23;;;3.80;99.90;;;;;;4950620;28;20180;-73
2021/12/06 07:33:49;;;;;;;45.83;21.25;;;2.10;99.90;;;;;;4990997;28;20401;-73
2021/12/06 07:36:14;;;;;;;43.85;19.30;;;3.00;99.90;;;;;;4951194;28;20104;-73
2021/12/06 07:38:42;;;;;;;41.60;17.10;;;2.50;99.90;;;;;;4975719;28;20035;-73
2021/12/06 07:41:12;;;;;;;49.88;23.55;;;3.10;99.90;;;;;;4951209;28;20039;-73
2021/12/06 07:43:38;;;;;;;53.40;21.75;;;2.10;99.90;;;;;;4991250;28;20079;-73
2021/12/06 07:46:05;;;;;;;47.65;21.48;;;2.20;99.90;;;;;;5037199;28;20045;-73
2021/12/06 07:48:31;;;;;;;44.03;19.50;;;2.30;99.90;;;;;;5020761;28;20054;-73
2021/12/06 07:50:59;;;;;;;49.80;22.75;;;3.20;99.90;;;;;;4950943;28;20451;-73
2021/12/06 07:53:26;;;;;;;47.88;21.17;;;3.00;99.90;;;;;;4936784;28;20066;-73
2021/12/06 07:55:52;;;;;;;56.63;23.48;;;2.40;99.90;;;;;;4976623;28;20043;-72
2021/12/06 07:58:18;;;;;;;51.92;21.90;;;2.50;99.90;;;;;;4967839;28;20158;-73
2021/12/06 08:00:47;;;;;;;52.25;23.45;;;2.80;99.90;;;;;;4954846;28;20050;-73
2021/12/06 08:03:14;;;;;;;51.42;22.45;;;3.00;99.90;;;;;;4950886;28;20058;-75
2021/12/06 08:05:42;;;;;;;61.03;26.27;;;3.30;99.90;;;;;;4949703;28;20054;-73
2021/12/06 08:08:12;;;;;;;53.25;23.88;;;3.20;99.90;;;;;;4950711;29;20051;-74
2021/12/06 08:10:43;;;;;;;53.58;24.00;;;3.20;99.90;;;;;;4950266;28;20134;-73
2021/12/06 08:13:15;;;;;;;54.30;21.95;;;3.20;99.90;;;;;;4966739;28;20047;-73
2021/12/06 08:15:41;;;;;;;57.15;24.33;;;2.10;99.90;;;;;;4954499;28;20495;-73
2021/12/06 08:18:07;;;;;;;47.10;20.75;;;2.40;99.90;;;;;;4950613;28;20051;-73
2021/12/06 08:20:35;;;;;;;45.88;19.20;;;3.20;99.90;;;;;;4950305;28;20043;-73
2021/12/06 08:23:01;;;;;;;45.80;18.02;;;2.00;99.90;;;;;;4963993;28;20112;-74
2021/12/06 08:25:27;;;;;;;51.40;22.63;;;2.20;99.90;;;;;;4944298;28;20380;-74
2021/12/06 08:27:53;;;;;;;51.78;21.40;;;2.60;99.90;;;;;;4950558;28;20062;-73
2021/12/06 08:30:22;;;;;;;56.70;23.92;;;2.20;99.90;;;;;;4950606;28;20071;-73
2021/12/06 08:33:00;;;;;;;63.17;25.40;;;3.50;99.90;;;;;;4950210;28;20083;-73
2021/12/06 08:35:27;;;;;;;52.65;20.00;;;2.70;99.90;;;;;;4950078;28;20043;-73
2021/12/06 08:37:56;;;;;;;54.95;22.52;;;2.60;99.90;;;;;;4949719;28;20154;-72
2021/12/06 08:40:22;;;;;;;59.65;25.27;;;2.30;99.90;;;;;;4956591;28;20043;-71
2021/12/06 08:42:48;;;;;;;66.95;25.45;;;3.20;99.90;;;;;;4949636;28;20687;-73
2021/12/06 08:45:14;;;;;;;55.05;22.73;;;2.10;99.90;;;;;;4950426;29;20116;-74
2021/12/06 08:47:41;;;;;;;46.70;18.08;;;3.10;99.90;;;;;;4958290;28;20070;-73
2021/12/06 08:50:11;;;;;;;36.33;15.35;;;2.10;99.90;;;;;;4958613;28;20072;-73
2021/12/06 08:52:38;;;;;;;52.08;21.50;;;2.20;99.90;;;;;;5005979;28;20093;-72
2021/12/06 08:55:06;;;;;;;50.75;20.17;;;3.10;99.90;;;;;;4945451;28;20066;-72
2021/12/06 08:57:34;;;;;;;50.33;22.15;;;3.20;99.90;;;;;;4955729;28;20121;-73
2021/12/06 09:00:00;;;;;;;49.55;21.27;;;2.30;99.90;;;;;;4951531;28;20105;-73
2021/12/06 09:02:26;;;;;;;56.30;25.33;;;3.30;99.90;;;;;;4948992;28;20044;-72
2021/12/06 09:04:52;;;;;;;71.88;27.95;;;2.30;99.90;;;;;;4946874;28;20051;-73
2021/12/06 09:07:19;;;;;;;41.88;18.15;;;3.20;99.90;;;;;;4945259;28;20542;-73
2021/12/06 09:09:49;;;;;;;52.03;21.33;;;3.10;99.90;;;;;;4948342;28;20173;-74
2021/12/06 09:12:26;;;;;;;51.30;22.90;;;3.90;99.90;;;;;;4947664;28;20125;-74
2021/12/06 09:14:55;;;;;;;56.50;24.05;;;4.00;99.90;;;;;;4972151;28;20039;-71
2021/12/06 09:17:22;;;;;;;55.83;24.40;;;3.30;99.90;;;;;;4950278;28;20078;-71
2021/12/06 09:19:48;;;;;;;48.03;21.73;;;2.50;99.90;;;;;;4951943;28;20071;-74
2021/12/06 09:22:14;;;;;;;56.80;24.67;;;2.80;99.90;;;;;;4951664;28;20067;-74
2021/12/06 09:24:40;;;;;;;50.33;22.77;;;3.30;99.90;;;;;;4926091;28;20096;-74
2021/12/06 09:27:07;;;;;;;46.92;21.60;;;3.30;99.90;;;;;;4930599;28;20491;-73
2021/12/06 09:29:36;;;;;;;54.50;24.63;;;2.60;99.90;;;;;;4995280;28;20060;-72
2021/12/06 09:32:07;;;;;;;46.15;18.85;;;3.30;99.90;;;;;;5049935;28;20087;-72
2021/12/06 09:34:34;;;;;;;41.83;18.98;;;3.30;99.90;;;;;;5057286;28;20049;-73
2021/12/06 09:37:00;;;;;;;41.03;18.65;;;3.30;99.90;;;;;;5070037;28;20392;-73
2021/12/06 09:39:26;;;;;;;42.40;19.08;;;3.20;99.90;;;;;;5052550;28;20045;-73
2021/12/06 09:41:53;;;;;;;49.55;22.85;;;3.10;99.90;;;;;;5053247;28;20052;-73
2021/12/06 09:44:19;;;;;;;45.47;20.33;;;2.60;99.90;;;;;;5045766;28;20136;-73
2021/12/06 09:46:45;;;;;;;49.08;23.42;;;3.50;99.90;;;;;;5047326;28;20098;-73
2021/12/06 09:49:21;;;;;;;40.67;17.35;;;3.50;99.90;;;;;;5026284;28;20048;-73
2021/12/06 09:51:53;;;;;;;43.03;18.42;;;2.90;99.90;;;;;;5045119;28;20052;-73
2021/12/06 09:54:28;;;;;;;54.22;23.08;;;3.10;99.90;;;;;;5034891;28;20402;-73
2021/12/06 09:56:54;;;;;;;;;;;3.20;99.90;;;;;;5046566;28;20044;-74
2021/12/06 09:59:24;;;;;;;39.10;17.00;;;3.10;99.90;;;;;;5074903;28;20316;-73
2021/12/06 10:01:53;;;;;;;43.38;19.33;;;3.30;99.90;;;;;;5066285;28;20169;-72
2021/12/06 10:04:21;;;;;;;43.88;20.77;;;3.10;99.90;;;;;;5057345;28;20060;-73
2021/12/06 10:06:49;;;;;;;43.95;20.10;;;2.60;99.90;;;;;;5049476;28;20432;-73
2021/12/06 10:09:16;;;;;;;39.35;17.92;;;2.90;99.90;;;;;;5049542;28;20052;-72
2021/12/06 10:11:43;;;;;;;51.70;21.35;;;2.90;99.90;;;;;;5049492;28;20368;-73
2021/12/06 10:14:09;;;;;;;41.78;19.52;;;3.10;99.90;;;;;;5046969;28;20098;-72
2021/12/06 10:16:37;;;;;;;40.97;19.30;;;3.30;99.90;;;;;;5063078;28;20041;-72
2021/12/06 10:19:05;;;;;;;38.40;18.80;;;2.60;99.90;;;;;;5051844;28;20051;-72
2021/12/06 10:21:37;;;;;;;44.13;20.60;;;2.50;99.90;;;;;;5045109;28;20372;-72
2021/12/06 10:24:26;;;;;;;39.70;18.80;;;3.00;99.90;;;;;;5054967;28;20045;-72
2021/12/06 10:27:10;;;;;;;40.75;17.58;;;3.00;99.90;;;;;;5052180;28;20084;-74
2021/12/06 10:29:40;;;;;;;31.13;14.52;;;3.00;99.90;;;;;;5001022;28;20059;-73
2021/12/06 10:32:21;;;;;;;41.08;18.10;;;2.40;99.90;;;;;;4951527;28;20446;-72
2021/12/06 10:35:03;;;;;;;39.85;17.45;;;3.10;99.90;;;;;;4951914;29;20055;-73
2021/12/06 10:37:45;;;;;;;34.35;12.43;;;2.90;99.90;;;;;;4952341;28;20056;-72
2021/12/06 10:40:22;;;;;;;30.27;15.15;;;3.00;99.90;;;;;;4952893;28;20054;-73
2021/12/06 10:42:50;;;;;;;33.22;16.35;;;2.80;99.90;;;;;;4951001;28;20044;-73
2021/12/06 10:45:20;;;;;;;39.03;16.92;;;3.10;99.90;;;;;;4951724;28;20126;-73
2021/12/06 10:48:08;;;;;;;35.25;16.17;;;2.50;99.90;;;;;;4967266;28;20039;-72
2021/12/06 10:50:35;;;;;;;26.65;13.10;;;2.30;99.90;;;;;;4954482;28;20112;-72
2021/12/06 10:53:03;;;;;;;38.67;17.60;;;2.20;99.90;;;;;;4953610;28;20058;-72
2021/12/06 10:55:31;;;;;;;30.05;12.32;;;2.50;99.90;;;;;;4957459;28;20057;-72
2021/12/06 10:58:00;;;;;;;33.42;15.68;;;2.20;99.90;;;;;;4951630;29;20043;-72
2021/12/06 11:01:07;;;;;;;37.03;16.48;;;2.40;99.90;;;;;;4962443;28;20051;-72
2021/12/06 11:03:34;;;;;;;;;;;2.90;99.90;;;;;;4961460;28;20058;-72
2021/12/06 11:06:31;;;;;;;36.75;15.95;;;2.50;99.90;;;;;;4966781;28;20007;-72
2021/12/06 11:08:59;;;;;;;41.10;17.83;;;2.70;99.90;;;;;;4951785;28;20059;-72
2021/12/06 11:11:30;;;;;;;40.42;17.88;;;2.80;99.90;;;;;;4958833;28;20066;-72
2021/12/06 11:14:12;;;;;;;39.55;16.58;;;2.40;99.90;;;;;;4966677;28;20030;-72
2021/12/06 11:16:44;;;;;;;30.80;13.63;;;2.90;99.90;;;;;;4965880;28;20039;-72
2021/12/06 11:19:15;;;;;;;40.47;17.50;;;2.30;99.90;;;;;;4966146;28;20173;-74
2021/12/06 11:21:49;;;;;;;40.33;17.42;;;2.90;99.90;;;;;;4961984;28;20038;-73
2021/12/06 11:24:16;;;;;;;40.03;16.47;;;2.90;99.90;;;;;;4953957;28;20043;-73
2021/12/06 11:26:56;;;;;;;30.73;14.13;;;2.80;99.90;;;;;;4953398;28;20467;-73
2021/12/06 11:29:40;;;;;;;37.10;17.85;;;2.70;99.90;;;;;;4950872;28;20055;-73
2021/12/06 11:32:19;;;;;;;40.65;16.95;;;2.50;99.90;;;;;;4977448;28;20062;-73
2021/12/06 11:35:19;;;;;;;37.80;17.30;;;2.50;99.90;;;;;;4950911;28;20060;-73
2021/12/06 11:37:54;;;;;;;40.42;18.42;;;2.70;99.90;;;;;;4957466;28;20066;-73
2021/12/06 11:40:22;;;;;;;;;;;2.70;99.90;;;;;;4952181;28;20445;-73
2021/12/06 11:43:00;;;;;;;44.28;19.65;;;2.50;99.90;;;;;;4952614;28;19976;-74
2021/12/06 11:45:45;;;;;;;45.42;18.98;;;2.50;99.90;;;;;;4951984;28;20475;-73
2021/12/06 11:48:18;;;;;;;28.42;13.40;;;2.80;99.90;;;;;;4951453;28;20463;-74
2021/12/06 11:50:54;;;;;;;47.45;22.45;;;2.90;99.90;;;;;;4951493;28;20043;-73
2021/12/06 11:53:28;;;;;;;46.83;20.17;;;2.80;99.90;;;;;;4969507;28;20043;-72
2021/12/06 11:56:05;;;;;;;37.73;15.47;;;3.10;99.90;;;;;;4965346;28;20039;-72
2021/12/06 11:58:37;;;;;;;43.40;20.70;;;2.60;99.90;;;;;;4951892;28;20399;-73
2021/12/06 12:01:04;;;;;;;39.25;18.85;;;3.20;99.90;;;;;;4950964;28;20031;-73
2021/12/06 12:03:32;;;;;;;35.05;15.95;;;2.70;99.90;;;;;;4952307;28;20047;-73
2021/12/06 12:05:58;;;;;;;33.15;16.58;;;3.20;99.90;;;;;;4950162;28;20093;-73
2021/12/06 12:08:25;;;;;;;27.92;13.98;;;3.10;99.90;;;;;;4932284;29;20051;-73
2021/12/06 12:10:53;;;;;;;29.40;14.48;;;3.00;99.90;;;;;;4950931;29;20051;-73
2021/12/06 12:13:35;;;;;;;29.63;15.07;;;2.70;99.90;;;;;;4950795;28;20055;-73
2021/12/06 12:16:07;;;;;;;38.30;18.15;;;2.80;99.90;;;;;;4950760;28;20475;-73
2021/12/06 12:18:36;;;;;;;33.65;17.15;;;3.10;99.90;;;;;;4934640;29;20372;-73
2021/12/06 12:21:03;;;;;;;32.67;15.63;;;2.90;99.90;;;;;;4950472;29;20047;-73
2021/12/06 12:23:32;;;;;;;26.23;12.88;;;2.80;99.90;;;;;;4950906;28;20043;-73
2021/12/06 12:26:20;;;;;;;32.45;15.48;;;3.30;99.90;;;;;;4950567;28;20526;-73
2021/12/06 12:28:51;;;;;;;25.70;13.73;;;2.80;99.90;;;;;;4955623;28;20517;-73
2021/12/06 12:31:19;;;;;;;28.27;13.27;;;3.30;99.90;;;;;;4955884;28;20054;-73
2021/12/06 12:33:47;;;;;;;24.23;13.45;;;3.30;99.90;;;;;;4987628;28;20043;-72
2021/12/06 12:36:22;;;;;;;27.90;13.65;;;2.90;99.90;;;;;;4985536;28;20398;-71
2021/12/06 12:38:50;;;;;;;25.73;13.23;;;2.90;99.90;;;;;;5010184;28;20030;-72
2021/12/06 12:41:18;;;;;;;23.95;12.32;;;2.90;99.90;;;;;;5028110;28;20050;-72
2021/12/06 12:43:46;;;;;;;26.88;13.90;;;3.00;99.90;;;;;;5003961;28;20074;-71
2021/12/06 12:46:16;;;;;;;26.33;14.90;;;3.30;99.90;;;;;;4974502;28;20355;-72
2021/12/06 12:48:58;;;;;;;25.50;13.68;;;3.40;99.90;;;;;;4972516;28;20050;-72
2021/12/06 12:51:34;;;;;;;29.55;13.60;;;3.40;99.90;;;;;;4988962;28;20416;-72
2021/12/06 12:54:18;;;;;;;31.13;15.45;;;3.30;99.90;;;;;;4972248;28;20520;-72
2021/12/06 12:56:52;;;;;;;30.67;14.68;;;3.30;99.90;;;;;;5003518;28;20050;-72
2021/12/06 12:59:23;;;;;;;31.02;15.60;;;3.00;99.90;;;;;;4972200;28;20386;-72
2021/12/06 13:02:13;;;;;;;30.90;16.75;;;3.40;99.90;;;;;;4956133;28;20041;-73
2021/12/06 13:04:57;;;;;;;29.33;14.93;;;3.30;99.90;;;;;;4972602;28;20050;-72